createdAt,value
2019-04-21T00:00:19.250Z,28.20
2019-04-21T00:01:18.387Z,26.70
2019-04-21T00:02:24.241Z,27.30
2019-04-21T00:03:25.838Z,30.80
2019-04-21T00:04:32.164Z,29.70
2019-04-21T00:05:38.490Z,28.10
2019-04-21T00:06:43.473Z,29.40
2019-04-21T00:07:37.748Z,31.10
2019-04-21T00:08:57.937Z,29.50
2019-04-21T00:09:41.074Z,30.40
2019-04-21T00:10:40.098Z,29.20
2019-04-21T00:11:40.852Z,29.60
2019-04-21T00:12:35.642Z,30.80
2019-04-21T00:13:36.739Z,32.80
2019-04-21T00:14:30.351Z,31.10
2019-04-21T00:15:28.935Z,31.20
2019-04-21T00:16:29.108Z,29.90
2019-04-21T00:17:21.773Z,31.60
2019-04-21T00:18:19.105Z,31.10
2019-04-21T00:19:21.555Z,31.90
2019-04-21T00:20:26.944Z,31.70
2019-04-21T00:21:26.499Z,32.20
2019-04-21T00:22:30.373Z,30.60
2019-04-21T00:23:37.489Z,32.00
2019-04-21T00:24:29.004Z,31.50
2019-04-21T00:25:32.160Z,31.10
2019-04-21T00:26:36.465Z,31.60
2019-04-21T00:27:33.344Z,31.20
2019-04-21T00:28:42.584Z,31.80
2019-04-21T00:30:39.893Z,32.70
2019-04-21T00:31:34.116Z,33.90
2019-04-21T00:32:33.383Z,33.00
2019-04-21T00:33:25.851Z,35.10
2019-04-21T00:34:19.432Z,33.40
2019-04-21T00:35:21.036Z,35.30
2019-04-21T00:36:25.267Z,33.00
2019-04-21T00:37:31.380Z,32.60
2019-04-21T00:38:56.446Z,33.70
2019-04-21T00:39:51.965Z,34.90
2019-04-21T00:40:46.103Z,36.40
2019-04-21T00:41:38.106Z,37.50
2019-04-21T00:42:34.319Z,32.60
2019-04-21T00:43:32.940Z,35.90
2019-04-21T00:44:29.399Z,36.70
2019-04-21T00:45:32.545Z,36.30
2019-04-21T00:46:35.110Z,37.70
2019-04-21T00:47:38.804Z,37.40
2019-04-21T00:48:45.908Z,35.80
2019-04-21T00:49:34.355Z,36.80
2019-04-21T00:50:53.231Z,35.20
2019-04-21T00:51:49.814Z,35.40
2019-04-21T00:52:52.573Z,37.50
2019-04-21T00:53:45.563Z,36.50
2019-04-21T00:54:51.982Z,38.60
2019-04-21T00:55:46.689Z,36.40
2019-04-21T00:56:46.694Z,36.50
2019-04-21T00:57:44.955Z,38.40
2019-04-21T00:58:39.606Z,39.10
2019-04-21T00:59:43.307Z,41.00
2019-04-21T01:00:38.563Z,36.80
2019-04-21T01:01:40.656Z,38.20
2019-04-21T01:02:48.513Z,39.60
2019-04-21T01:03:38.453Z,40.70
2019-04-21T01:04:42.866Z,40.80
2019-04-21T01:05:42.782Z,41.90
2019-04-21T01:06:43.468Z,40.40
2019-04-21T01:07:37.061Z,40.60
2019-04-21T01:08:39.984Z,41.50
2019-04-21T01:09:34.253Z,37.20
2019-04-21T01:10:33.575Z,43.90
2019-04-21T01:11:40.233Z,43.70
2019-04-21T01:12:37.387Z,41.10
2019-04-21T01:13:41.490Z,40.30
2019-04-21T01:14:45.611Z,41.90
2019-04-21T01:15:43.553Z,41.30
2019-04-21T01:16:43.879Z,44.80
2019-04-21T01:17:40.651Z,44.10
2019-04-21T01:18:38.064Z,40.10
2019-04-21T01:19:38.800Z,41.20
2019-04-21T01:20:18.221Z,41.70
2019-04-21T01:21:16.598Z,40.60
2019-04-21T01:22:16.587Z,44.10
2019-04-21T01:23:16.776Z,42.30
2019-04-21T01:24:21.923Z,44.00
2019-04-21T01:25:25.863Z,43.40
2019-04-21T01:26:31.098Z,42.60
2019-04-21T01:27:40.638Z,45.20
2019-04-21T01:28:37.646Z,44.60
2019-04-21T01:29:44.060Z,45.00
2019-04-21T01:30:41.498Z,43.40
2019-04-21T01:31:36.327Z,42.50
2019-04-21T01:32:42.706Z,46.30
2019-04-21T01:33:39.691Z,43.70
2019-04-21T01:34:39.309Z,43.70
2019-04-21T01:35:40.265Z,44.00
2019-04-21T01:36:37.045Z,46.90
2019-04-21T01:37:44.166Z,43.50
2019-04-21T01:38:45.330Z,45.20
2019-04-21T01:39:48.506Z,45.20
2019-04-21T01:40:41.014Z,45.20
2019-04-21T01:41:42.965Z,47.20
2019-04-21T01:42:41.138Z,45.70
2019-04-21T01:43:33.497Z,48.70
2019-04-21T01:44:41.866Z,48.20
2019-04-21T01:45:37.042Z,48.70
2019-04-21T01:46:36.364Z,48.60
2019-04-21T01:47:32.704Z,47.00
2019-04-21T01:48:34.467Z,50.40
2019-04-21T01:49:29.673Z,49.30
2019-04-21T01:50:36.605Z,48.80
2019-04-21T01:51:36.747Z,49.60
2019-04-21T01:52:46.203Z,48.10
2019-04-21T01:53:43.506Z,47.80
2019-04-21T01:54:40.434Z,49.90
2019-04-21T01:55:36.806Z,48.60
2019-04-21T01:56:35.651Z,50.30
2019-04-21T01:57:34.681Z,48.30
2019-04-21T01:58:29.480Z,48.90
2019-04-21T01:59:33.708Z,48.90
2019-04-21T02:00:32.807Z,48.10
2019-04-21T02:01:54.165Z,50.30
2019-04-21T02:02:36.379Z,52.50
2019-04-21T02:04:45.346Z,47.90
2019-04-21T02:05:43.947Z,50.90
2019-04-21T02:06:41.402Z,46.60
2019-04-21T02:07:39.877Z,49.70
2019-04-21T02:08:34.537Z,50.60
2019-04-21T02:09:38.414Z,47.80
2019-04-21T02:10:40.282Z,52.00
2019-04-21T02:11:48.618Z,48.50
2019-04-21T02:12:38.067Z,48.90
2019-04-21T02:13:35.508Z,49.90
2019-04-21T02:14:45.746Z,51.90
2019-04-21T02:15:42.317Z,49.10
2019-04-21T02:16:40.624Z,52.10
2019-04-21T02:17:34.173Z,52.20
2019-04-21T02:18:33.351Z,50.20
2019-04-21T02:19:32.597Z,54.40
2019-04-21T02:20:29.437Z,49.20
2019-04-21T02:21:31.839Z,51.30
2019-04-21T02:22:46.176Z,53.30
2019-04-21T02:24:42.498Z,51.70
2019-04-21T02:25:38.446Z,56.40
2019-04-21T02:26:42.898Z,51.30
2019-04-21T02:27:36.477Z,52.40
2019-04-21T02:28:42.821Z,54.00
2019-04-21T02:29:41.558Z,51.50
2019-04-21T02:31:45.332Z,52.20
2019-04-21T02:32:49.547Z,51.90
2019-04-21T02:33:57.489Z,52.20
2019-04-21T02:34:49.142Z,53.30
2019-04-21T02:36:15.567Z,51.30
2019-04-21T02:36:52.978Z,53.10
2019-04-21T02:37:54.876Z,50.40
2019-04-21T02:39:48.973Z,56.10
2019-04-21T02:41:51.208Z,56.60
2019-04-21T02:43:07.519Z,53.70
2019-04-21T02:43:52.456Z,57.60
2019-04-21T02:44:52.174Z,54.60
2019-04-21T02:45:47.115Z,52.40
2019-04-21T02:46:42.132Z,55.40
2019-04-21T02:48:11.196Z,54.90
2019-04-21T02:49:56.014Z,52.20
2019-04-21T02:53:03.571Z,53.80
2019-04-21T02:55:56.564Z,54.20
2019-04-21T02:56:59.107Z,56.30
2019-04-21T02:57:51.903Z,55.30
2019-04-21T02:58:57.006Z,56.40
2019-04-21T02:59:55.822Z,53.30
2019-04-21T03:00:44.447Z,57.00
2019-04-21T03:02:52.566Z,55.70
2019-04-21T03:03:49.186Z,55.50
2019-04-21T03:05:01.718Z,54.70
2019-04-21T03:06:59.935Z,55.70
2019-04-21T03:07:55.407Z,57.10
2019-04-21T03:08:56.687Z,56.20
2019-04-21T03:09:44.485Z,56.70
2019-04-21T03:11:52.311Z,59.20
2019-04-21T03:12:53.034Z,55.80
2019-04-21T03:13:46.979Z,58.80
2019-04-21T03:14:59.569Z,57.10
2019-04-21T03:15:53.221Z,58.20
2019-04-21T03:16:49.328Z,58.20
2019-04-21T03:17:49.928Z,57.00
2019-04-21T03:18:54.243Z,61.40
2019-04-21T03:19:59.869Z,56.80
2019-04-21T03:20:42.127Z,58.80
2019-04-21T03:21:48.347Z,60.20
2019-04-21T03:23:58.346Z,58.20
2019-04-21T03:25:20.483Z,59.00
2019-04-21T03:25:53.443Z,57.30
2019-04-21T03:31:11.532Z,58.50
2019-04-21T03:35:14.909Z,59.20
2019-04-21T03:36:30.018Z,60.70
2019-04-21T03:37:47.025Z,60.70
2019-04-21T03:38:40.500Z,60.20
2019-04-21T03:39:56.781Z,60.50
2019-04-21T03:40:39.399Z,61.30
2019-04-21T03:42:00.189Z,61.50
2019-04-21T03:44:08.023Z,61.00
2019-04-21T03:44:45.714Z,63.00
2019-04-21T03:45:42.298Z,63.40
2019-04-21T03:46:47.743Z,61.70
2019-04-21T03:47:43.479Z,62.40
2019-04-21T03:49:04.742Z,63.70
2019-04-21T03:50:47.263Z,62.00
2019-04-21T03:51:45.805Z,64.30
2019-04-21T03:55:01.565Z,65.10
2019-04-21T03:55:53.165Z,65.00
2019-04-21T03:57:06.032Z,64.00
2019-04-21T03:59:52.341Z,64.30
2019-04-21T04:01:50.643Z,65.50
2019-04-21T04:02:55.269Z,64.20
2019-04-21T04:04:44.910Z,64.80
2019-04-21T04:05:59.669Z,65.60
2019-04-21T04:08:57.533Z,68.70
2019-04-21T04:10:58.708Z,64.50
2019-04-21T04:11:58.449Z,65.30
2019-04-21T04:14:20.351Z,65.70
2019-04-21T04:14:44.186Z,63.70
2019-04-21T04:17:40.796Z,66.50
2019-04-21T04:20:48.059Z,65.20
2019-04-21T04:22:09.162Z,64.90
2019-04-21T04:22:49.681Z,65.80
2019-04-21T04:25:03.479Z,66.60
2019-04-21T04:25:53.657Z,68.60
2019-04-21T04:26:45.508Z,67.40
2019-04-21T04:28:02.147Z,67.70
2019-04-21T04:29:59.334Z,68.80
2019-04-21T04:30:45.959Z,69.10
2019-04-21T04:32:59.088Z,69.80
2019-04-21T04:34:09.875Z,68.00
2019-04-21T04:34:49.933Z,68.30
2019-04-21T04:36:58.447Z,68.40
2019-04-21T04:38:56.309Z,69.70
2019-04-21T04:39:48.494Z,71.40
2019-04-21T04:40:51.246Z,72.00
2019-04-21T04:41:56.830Z,71.70
2019-04-21T04:43:44.633Z,72.40
2019-04-21T04:45:48.201Z,74.40
2019-04-21T04:48:57.309Z,73.60
2019-04-21T04:50:50.057Z,74.50
2019-04-21T04:51:56.718Z,74.80
2019-04-21T04:53:43.951Z,76.60
2019-04-21T04:56:48.201Z,76.50
2019-04-21T04:57:55.029Z,75.80
2019-04-21T04:59:18.619Z,79.20
2019-04-21T05:00:52.130Z,79.40
2019-04-21T05:01:53.329Z,78.90
2019-04-21T05:02:40.307Z,81.00
2019-04-21T05:03:50.976Z,80.70
2019-04-21T05:05:48.816Z,79.80
2019-04-21T05:07:52.333Z,81.40
2019-04-21T05:09:47.105Z,81.10
2019-04-21T05:11:07.713Z,83.20
2019-04-21T05:12:48.130Z,80.80
2019-04-21T05:13:51.450Z,81.50
2019-04-21T05:14:46.162Z,83.00
2019-04-21T05:15:42.616Z,82.10
2019-04-21T05:17:43.290Z,82.50
2019-04-21T05:18:53.112Z,83.00
2019-04-21T05:20:03.547Z,81.80
2019-04-21T05:20:41.891Z,83.70
2019-04-21T05:21:59.532Z,86.30
2019-04-21T05:22:53.089Z,83.40
2019-04-21T05:23:38.359Z,83.40
2019-04-21T05:24:33.266Z,87.50
2019-04-21T05:25:27.768Z,85.50
2019-04-21T05:26:33.368Z,86.90
2019-04-21T05:27:32.085Z,86.30
2019-04-21T05:28:30.195Z,86.10
2019-04-21T05:29:36.388Z,86.60
2019-04-21T05:30:43.413Z,87.70
2019-04-21T05:31:43.056Z,86.40
2019-04-21T05:32:42.774Z,88.50
2019-04-21T05:33:38.398Z,88.90
2019-04-21T05:34:42.972Z,90.30
2019-04-21T05:35:32.188Z,90.10
2019-04-21T05:36:40.797Z,89.20
2019-04-21T05:37:39.798Z,90.70
2019-04-21T05:38:34.695Z,91.20
2019-04-21T05:39:33.645Z,91.40
2019-04-21T05:40:26.450Z,93.10
2019-04-21T05:41:26.557Z,94.10
2019-04-21T05:42:30.357Z,92.70
2019-04-21T05:43:39.117Z,95.20
2019-04-21T05:44:41.869Z,94.50
2019-04-21T05:45:53.041Z,95.80
2019-04-21T05:46:40.783Z,95.00
2019-04-21T05:47:41.646Z,95.50
2019-04-21T05:49:34.140Z,96.00
2019-04-21T05:50:35.047Z,94.60
2019-04-21T05:51:30.630Z,95.70
2019-04-21T05:52:26.450Z,95.10
2019-04-21T05:53:38.660Z,95.80
2019-04-21T05:54:45.651Z,96.70
2019-04-21T05:56:37.970Z,93.70
2019-04-21T05:57:33.459Z,95.50
2019-04-21T05:58:40.962Z,95.10
2019-04-21T05:59:40.364Z,95.20
2019-04-21T06:00:59.290Z,95.70
2019-04-21T06:01:37.729Z,94.30
2019-04-21T06:02:36.557Z,94.10
2019-04-21T06:05:02.072Z,94.40
2019-04-21T06:05:58.461Z,94.60
2019-04-21T06:06:39.203Z,93.60
2019-04-21T06:07:38.237Z,92.10
2019-04-21T06:08:38.972Z,92.50
2019-04-21T06:09:45.425Z,92.70
2019-04-21T06:10:41.934Z,91.20
2019-04-21T06:11:36.369Z,93.10
2019-04-21T06:12:44.904Z,90.90
2019-04-21T06:13:46.444Z,91.90
2019-04-21T06:14:36.723Z,88.70
2019-04-21T06:15:48.416Z,88.80
2019-04-21T06:16:43.604Z,90.70
2019-04-21T06:17:42.852Z,89.00
2019-04-21T06:18:44.940Z,88.80
2019-04-21T06:19:43.195Z,90.60
2019-04-21T06:20:38.843Z,88.80
2019-04-21T06:21:36.005Z,91.10
2019-04-21T06:22:36.111Z,88.20
2019-04-21T06:23:36.019Z,86.60
2019-04-21T06:24:42.249Z,89.00
2019-04-21T06:27:19.461Z,86.00
2019-04-21T06:27:55.713Z,84.20
2019-04-21T06:28:41.676Z,82.40
2019-04-21T06:29:36.192Z,86.90
2019-04-21T06:30:39.206Z,82.90
2019-04-21T06:32:07.956Z,86.20
2019-04-21T06:32:48.395Z,84.50
2019-04-21T06:33:41.232Z,84.70
2019-04-21T06:34:53.158Z,87.50
2019-04-21T06:35:48.465Z,83.50
2019-04-21T06:36:45.162Z,85.40
2019-04-21T06:37:43.278Z,84.50
2019-04-21T06:38:43.393Z,84.20
2019-04-21T06:40:43.869Z,82.80
2019-04-21T06:41:35.352Z,83.40
2019-04-21T06:42:43.221Z,81.00
2019-04-21T06:43:40.188Z,82.70
2019-04-21T06:44:46.224Z,83.00
2019-04-21T06:45:43.638Z,79.80
2019-04-21T06:48:40.861Z,73.40
2019-04-21T06:49:35.407Z,78.90
2019-04-21T06:50:40.058Z,80.00
2019-04-21T06:51:38.964Z,80.10
2019-04-21T06:53:48.670Z,79.30
2019-04-21T06:54:44.381Z,80.60
2019-04-21T06:55:34.089Z,79.30
2019-04-21T06:58:35.902Z,75.30
2019-04-21T06:59:34.111Z,77.00
2019-04-21T07:00:38.479Z,78.70
2019-04-21T07:02:42.273Z,75.30
2019-04-21T07:03:40.487Z,74.20
2019-04-21T07:04:39.529Z,74.60
2019-04-21T07:05:40.940Z,73.40
2019-04-21T07:06:45.608Z,72.60
2019-04-21T07:07:41.872Z,74.40
2019-04-21T07:08:44.661Z,74.50
2019-04-21T07:09:36.710Z,75.70
2019-04-21T07:10:35.136Z,72.90
2019-04-21T07:11:33.161Z,77.20
2019-04-21T07:12:34.308Z,75.80
2019-04-21T07:13:30.967Z,76.40
2019-04-21T07:14:37.987Z,75.70
2019-04-21T07:15:41.917Z,74.90
2019-04-21T07:16:41.535Z,75.40
2019-04-21T07:17:32.612Z,74.00
2019-04-21T07:18:41.526Z,75.20
2019-04-21T07:19:41.222Z,74.90
2019-04-21T07:20:36.606Z,76.20
2019-04-21T07:21:33.846Z,78.00
2019-04-21T07:22:37.633Z,78.50
2019-04-21T07:23:39.992Z,76.50
2019-04-21T07:24:41.728Z,76.30
2019-04-21T07:25:40.861Z,77.40
2019-04-21T07:26:38.661Z,77.70
2019-04-21T07:27:35.124Z,76.90
2019-04-21T07:28:39.870Z,79.30
2019-04-21T07:29:39.586Z,81.10
2019-04-21T07:30:51.813Z,81.30
2019-04-21T07:31:39.901Z,80.10
2019-04-21T07:32:33.680Z,79.70
2019-04-21T07:35:51.786Z,79.10
2019-04-21T07:36:46.440Z,80.10
2019-04-21T07:37:35.314Z,81.30
2019-04-21T07:38:34.558Z,80.50
2019-04-21T07:39:34.024Z,78.20
2019-04-21T07:40:31.519Z,80.70
2019-04-21T07:41:24.969Z,78.20
2019-04-21T07:42:31.027Z,76.90
2019-04-21T07:43:33.130Z,77.60
2019-04-21T07:44:30.239Z,77.80
2019-04-21T07:45:30.682Z,79.50
2019-04-21T07:46:26.365Z,81.20
2019-04-21T07:47:37.270Z,77.10
2019-04-21T07:48:32.251Z,75.00
2019-04-21T07:49:36.955Z,73.70
2019-04-21T07:50:31.788Z,74.80
2019-04-21T07:51:40.429Z,73.80
2019-04-21T07:52:39.579Z,73.80
2019-04-21T07:53:48.236Z,72.00
2019-04-21T07:54:41.459Z,70.20
2019-04-21T07:56:20.308Z,70.70
2019-04-21T07:57:35.229Z,75.80
2019-04-21T07:58:38.702Z,75.10
2019-04-21T07:59:47.993Z,72.70
2019-04-21T08:00:35.933Z,71.30
2019-04-21T08:01:35.505Z,73.40
2019-04-21T08:02:34.304Z,72.80
2019-04-21T08:03:33.645Z,71.90
2019-04-21T08:05:38.610Z,68.80
2019-04-21T08:06:33.895Z,70.60
2019-04-21T08:07:41.763Z,70.50
2019-04-21T08:08:34.250Z,72.70
2019-04-21T08:09:31.887Z,70.00
2019-04-21T08:10:36.300Z,67.80
2019-04-21T08:11:28.265Z,67.90
2019-04-21T08:12:30.594Z,66.70
2019-04-21T08:14:13.910Z,67.40
2019-04-21T08:14:38.460Z,67.30
2019-04-21T08:15:39.558Z,67.30
2019-04-21T08:16:31.846Z,68.90
2019-04-21T08:17:36.614Z,69.60
2019-04-21T08:18:33.239Z,67.00
2019-04-21T08:19:31.027Z,68.90
2019-04-21T08:20:29.128Z,65.10
2019-04-21T08:21:37.305Z,64.00
2019-04-21T08:22:32.076Z,67.60
2019-04-21T08:23:31.866Z,66.50
2019-04-21T08:24:34.911Z,69.90
2019-04-21T08:25:36.392Z,69.50
2019-04-21T08:26:35.942Z,66.80
2019-04-21T08:27:35.401Z,67.50
2019-04-21T08:28:31.982Z,66.40
2019-04-21T08:31:38.383Z,67.20
2019-04-21T08:32:44.326Z,68.60
2019-04-21T08:33:38.405Z,64.80
2019-04-21T08:34:35.441Z,66.30
2019-04-21T08:35:52.951Z,63.60
2019-04-21T08:36:44.870Z,62.00
2019-04-21T08:37:31.399Z,62.90
2019-04-21T08:38:35.833Z,62.80
2019-04-21T08:39:42.330Z,64.00
2019-04-21T08:40:36.677Z,62.40
2019-04-21T08:41:36.156Z,63.90
2019-04-21T08:42:30.563Z,63.80
2019-04-21T08:43:42.648Z,64.20
2019-04-21T08:44:45.216Z,61.50
2019-04-21T08:45:36.129Z,62.70
2019-04-21T08:46:31.128Z,65.70
2019-04-21T08:47:36.588Z,66.60
2019-04-21T08:48:37.676Z,64.30
2019-04-21T08:49:39.213Z,62.80
2019-04-21T08:50:31.342Z,62.40
2019-04-21T08:51:33.333Z,61.40
2019-04-21T08:52:49.052Z,64.00
2019-04-21T08:53:36.237Z,62.10
2019-04-21T08:54:38.368Z,62.30
2019-04-21T08:55:37.185Z,61.80
2019-04-21T08:56:34.563Z,59.30
2019-04-21T08:57:48.870Z,57.70
2019-04-21T08:58:35.669Z,56.00
2019-04-21T08:59:36.350Z,58.20
2019-04-21T09:00:36.832Z,59.50
2019-04-21T09:02:35.298Z,57.80
2019-04-21T09:03:33.020Z,58.90
2019-04-21T09:04:29.098Z,59.00
2019-04-21T09:05:34.294Z,58.30
2019-04-21T09:06:52.590Z,55.20
2019-04-21T09:07:41.697Z,56.90
2019-04-21T09:08:33.150Z,59.20
2019-04-21T09:09:36.071Z,59.10
2019-04-21T09:10:31.070Z,59.90
2019-04-21T09:11:29.499Z,60.40
2019-04-21T09:12:29.413Z,61.40
2019-04-21T09:13:32.130Z,61.60
2019-04-21T09:14:31.016Z,62.60
2019-04-21T09:15:32.084Z,62.90
2019-04-21T09:16:31.166Z,61.20
2019-04-21T09:17:26.290Z,58.60
2019-04-21T09:18:28.410Z,59.10
2019-04-21T09:19:40.104Z,62.20
2019-04-21T09:20:33.215Z,61.60
2019-04-21T09:21:31.344Z,60.70
2019-04-21T09:22:31.754Z,63.00
2019-04-21T09:23:36.458Z,61.50
2019-04-21T09:24:28.053Z,63.90
2019-04-21T09:25:38.632Z,60.60
2019-04-21T09:26:29.339Z,62.80
2019-04-21T09:27:27.391Z,63.90
2019-04-21T09:28:28.836Z,65.10
2019-04-21T09:29:21.760Z,60.70
2019-04-21T09:30:12.981Z,61.30
2019-04-21T09:31:12.232Z,62.90
2019-04-21T09:32:18.427Z,63.80
2019-04-21T09:33:12.394Z,63.40
2019-04-21T09:34:20.632Z,63.20
2019-04-21T09:35:14.808Z,63.90
2019-04-21T09:36:15.970Z,64.40
2019-04-21T09:37:24.405Z,67.60
2019-04-21T09:38:22.675Z,63.60
2019-04-21T09:39:16.543Z,64.00
2019-04-21T09:40:14.013Z,60.60
2019-04-21T09:41:16.128Z,60.20
2019-04-21T09:42:13.621Z,59.50
2019-04-21T09:43:13.453Z,60.60
2019-04-21T09:44:18.731Z,61.60
2019-04-21T09:45:13.873Z,62.20
2019-04-21T09:46:11.808Z,60.20
2019-04-21T09:47:12.588Z,60.50
2019-04-21T09:48:16.716Z,60.50
2019-04-21T09:49:16.519Z,59.40
2019-04-21T09:50:13.459Z,57.10
2019-04-21T09:51:11.205Z,57.40
2019-04-21T09:52:18.590Z,60.90
2019-04-21T09:53:20.434Z,60.40
2019-04-21T09:54:20.491Z,60.10
2019-04-21T09:55:17.111Z,58.60
2019-04-21T09:56:16.712Z,59.50
2019-04-21T09:57:24.304Z,59.20
2019-04-21T09:58:21.798Z,57.10
2019-04-21T09:59:20.662Z,57.00
2019-04-21T10:00:18.742Z,57.30
2019-04-21T10:01:20.588Z,52.10
2019-04-21T10:02:19.237Z,55.80
2019-04-21T10:03:15.728Z,48.20
2019-04-21T10:04:12.077Z,51.30
2019-04-21T10:05:12.294Z,52.90
2019-04-21T10:06:11.561Z,55.40
2019-04-21T10:07:23.597Z,55.80
2019-04-21T10:08:12.572Z,55.30
2019-04-21T10:09:14.419Z,55.10
2019-04-21T10:10:12.888Z,55.30
2019-04-21T10:11:11.886Z,57.90
2019-04-21T10:12:11.864Z,56.10
2019-04-21T10:13:10.932Z,52.30
2019-04-21T10:14:11.735Z,52.70
2019-04-21T10:15:10.964Z,54.80
2019-04-21T10:16:10.912Z,55.80
2019-04-21T10:17:11.027Z,57.90
2019-04-21T10:18:10.935Z,59.40
2019-04-21T10:19:11.219Z,59.40
2019-04-21T10:20:11.789Z,58.60
2019-04-21T10:21:10.858Z,59.10
2019-04-21T10:22:10.831Z,57.70
2019-04-21T10:23:11.390Z,60.00
2019-04-21T10:24:10.820Z,64.30
2019-04-21T10:25:10.809Z,59.80
2019-04-21T10:26:10.789Z,59.30
2019-04-21T10:27:12.888Z,58.30
2019-04-21T10:28:11.012Z,58.30
2019-04-21T10:29:17.001Z,62.40
2019-04-21T10:30:12.116Z,62.00
2019-04-21T10:31:11.021Z,62.80
2019-04-21T10:32:11.348Z,63.90
2019-04-21T10:33:10.717Z,62.00
2019-04-21T10:34:11.514Z,61.20
2019-04-21T10:35:10.996Z,60.40
2019-04-21T10:36:11.042Z,52.00
2019-04-21T10:37:11.214Z,52.50
2019-04-21T10:38:19.818Z,57.30
2019-04-21T10:39:11.722Z,56.10
2019-04-21T10:40:11.757Z,56.60
2019-04-21T10:41:11.738Z,52.70
2019-04-21T10:42:11.302Z,54.80
2019-04-21T10:43:13.462Z,54.80
2019-04-21T10:44:11.439Z,55.20
2019-04-21T10:45:10.888Z,56.30
2019-04-21T10:46:10.816Z,51.80
2019-04-21T10:47:10.962Z,50.70
2019-04-21T10:48:10.912Z,53.90
2019-04-21T10:49:10.831Z,49.30
2019-04-21T10:50:10.890Z,49.20
2019-04-21T10:51:10.765Z,51.40
2019-04-21T10:52:10.952Z,51.90
2019-04-21T10:53:11.142Z,52.50
2019-04-21T10:54:11.663Z,48.90
2019-04-21T10:55:30.973Z,47.20
2019-04-21T10:56:21.124Z,50.70
2019-04-21T10:57:12.500Z,50.50
2019-04-21T10:58:10.816Z,51.00
2019-04-21T10:59:10.429Z,49.10
2019-04-21T11:00:12.045Z,48.10
2019-04-21T11:01:10.706Z,47.60
2019-04-21T11:02:10.636Z,44.50
2019-04-21T11:03:10.901Z,44.90
2019-04-21T11:04:17.015Z,44.20
2019-04-21T11:05:12.500Z,43.80
2019-04-21T11:06:10.639Z,45.60
2019-04-21T11:07:14.534Z,46.80
2019-04-21T11:08:22.616Z,44.60
2019-04-21T11:09:11.325Z,45.50
2019-04-21T11:10:11.633Z,45.30
2019-04-21T11:11:10.315Z,45.40
2019-04-21T11:12:10.338Z,45.90
2019-04-21T11:13:10.428Z,45.10
2019-04-21T11:14:10.590Z,46.00
2019-04-21T11:15:11.444Z,44.40
2019-04-21T11:16:10.964Z,42.90
2019-04-21T11:17:10.273Z,42.20
2019-04-21T11:18:10.299Z,45.40
2019-04-21T11:19:11.631Z,43.70
2019-04-21T11:20:10.835Z,43.70
2019-04-21T11:21:11.198Z,44.60
2019-04-21T11:22:10.467Z,42.90
2019-04-21T11:23:10.223Z,41.90
2019-04-21T11:24:10.327Z,42.50
2019-04-21T11:25:11.192Z,44.00
2019-04-21T11:26:10.160Z,40.00
2019-04-21T11:27:10.932Z,38.80
2019-04-21T11:28:11.164Z,39.60
2019-04-21T11:29:10.809Z,41.20
2019-04-21T11:30:11.655Z,41.10
2019-04-21T11:31:11.105Z,39.30
2019-04-21T11:32:10.098Z,39.60
2019-04-21T11:33:11.244Z,41.50
2019-04-21T11:34:11.214Z,42.70
2019-04-21T11:35:10.047Z,45.70
2019-04-21T11:36:11.164Z,40.70
2019-04-21T11:37:10.290Z,40.70
2019-04-21T11:38:16.945Z,41.70
2019-04-21T11:39:23.597Z,41.90
2019-04-21T11:40:14.964Z,41.10
2019-04-21T11:41:11.950Z,39.00
2019-04-21T11:42:10.113Z,42.50
2019-04-21T11:43:09.965Z,40.40
2019-04-21T11:44:09.955Z,40.90
2019-04-21T11:45:10.510Z,38.50
2019-04-21T11:46:10.827Z,39.00
2019-04-21T11:47:10.265Z,39.80
2019-04-21T11:48:10.469Z,37.40
2019-04-21T11:49:10.386Z,40.40
2019-04-21T11:50:10.887Z,38.80
2019-04-21T11:51:11.028Z,40.20
2019-04-21T11:52:11.223Z,37.80
2019-04-21T11:53:10.650Z,37.30
2019-04-21T11:54:10.843Z,35.40
2019-04-21T11:55:11.010Z,38.10
2019-04-21T11:56:09.831Z,38.50
2019-04-21T11:57:16.050Z,35.70
2019-04-21T11:58:11.902Z,37.20
2019-04-21T11:59:10.062Z,36.20
2019-04-21T12:00:09.790Z,35.60
2019-04-21T12:01:09.771Z,36.30
2019-04-21T12:02:09.824Z,36.50
2019-04-21T12:03:12.395Z,39.50
2019-04-21T12:04:11.735Z,37.50
2019-04-21T12:05:09.787Z,36.20
2019-04-21T12:06:11.060Z,35.10
2019-04-21T12:07:09.718Z,36.10
2019-04-21T12:08:21.198Z,33.30
2019-04-21T12:09:11.764Z,33.20
2019-04-21T12:10:09.677Z,36.40
2019-04-21T12:11:09.695Z,32.60
2019-04-21T12:12:09.660Z,35.50
2019-04-21T12:13:10.080Z,34.60
2019-04-21T12:14:09.980Z,33.50
2019-04-21T12:15:11.237Z,33.10
2019-04-21T12:16:10.660Z,32.70
2019-04-21T12:17:10.038Z,31.80
2019-04-21T12:18:10.044Z,32.10
2019-04-21T12:19:09.597Z,31.10
2019-04-21T12:20:10.637Z,32.00
2019-04-21T12:21:09.562Z,32.30
2019-04-21T12:22:18.213Z,30.70
2019-04-21T12:23:10.537Z,33.10
2019-04-21T12:24:09.545Z,32.80
2019-04-21T12:25:09.526Z,31.80
2019-04-21T12:26:09.513Z,29.70
2019-04-21T12:27:09.821Z,30.20
2019-04-21T12:28:10.030Z,30.30
2019-04-21T12:29:10.067Z,29.50
2019-04-21T12:30:09.584Z,29.20
2019-04-21T12:31:09.685Z,33.10
2019-04-21T12:32:09.763Z,31.40
2019-04-21T12:33:09.876Z,28.60
2019-04-21T12:34:09.866Z,28.10
2019-04-21T12:35:10.071Z,28.30
2019-04-21T12:36:09.536Z,27.90
2019-04-21T12:37:10.668Z,28.00
2019-04-21T12:38:09.378Z,26.50
2019-04-21T12:39:10.702Z,28.60
2019-04-21T12:40:10.512Z,30.90
2019-04-21T12:41:10.676Z,30.50
2019-04-21T12:42:09.346Z,28.00
2019-04-21T12:43:10.480Z,31.50
2019-04-21T12:44:10.724Z,28.70
2019-04-21T12:45:09.786Z,27.60
2019-04-21T12:46:09.724Z,26.50
2019-04-21T12:47:10.066Z,29.40
2019-04-21T12:48:10.452Z,26.30
2019-04-21T12:49:09.775Z,25.30
2019-04-21T12:50:09.253Z,29.80
2019-04-21T12:51:10.141Z,27.10
2019-04-21T12:52:09.418Z,26.20
2019-04-21T12:53:09.538Z,29.30
2019-04-21T12:54:09.849Z,28.40
2019-04-21T12:55:09.503Z,28.20
2019-04-21T12:56:09.492Z,29.70
2019-04-21T12:57:09.658Z,26.10
2019-04-21T12:58:09.167Z,25.20
2019-04-21T12:59:10.017Z,25.10
2019-04-21T13:00:09.156Z,26.30
2019-04-21T13:01:09.366Z,25.60
2019-04-21T13:02:09.590Z,24.00
2019-04-21T13:03:09.912Z,25.30
2019-04-21T13:04:10.132Z,25.30
2019-04-21T13:05:09.506Z,24.20
2019-04-21T13:06:09.968Z,24.40
2019-04-21T13:07:09.821Z,23.10
2019-04-21T13:08:09.302Z,23.70
2019-04-21T13:09:12.362Z,27.00
2019-04-21T13:10:10.507Z,23.90
2019-04-21T13:11:09.556Z,24.00
2019-04-21T13:12:09.048Z,24.70
2019-04-21T13:13:10.061Z,25.70
2019-04-21T13:14:08.980Z,23.80
2019-04-21T13:15:08.978Z,24.00
2019-04-21T13:16:09.652Z,23.20
2019-04-21T13:17:09.847Z,23.70
2019-04-21T13:18:10.095Z,26.20
2019-04-21T13:19:09.339Z,23.00
2019-04-21T13:20:09.547Z,23.10
2019-04-21T13:21:09.910Z,25.10
2019-04-21T13:22:09.904Z,23.30
2019-04-21T13:23:10.066Z,24.10
2019-04-21T13:24:08.895Z,24.80
2019-04-21T13:25:09.734Z,26.40
2019-04-21T13:26:09.747Z,23.90
2019-04-21T13:27:09.455Z,23.10
2019-04-21T13:28:08.845Z,24.10
2019-04-21T13:29:10.147Z,23.30
2019-04-21T13:30:08.831Z,25.70
2019-04-21T13:31:08.815Z,22.90
2019-04-21T13:32:09.361Z,24.10
2019-04-21T13:33:09.203Z,23.70
2019-04-21T13:34:10.288Z,22.80
2019-04-21T13:35:10.719Z,22.10
2019-04-21T13:36:09.684Z,24.30
2019-04-21T13:37:09.734Z,20.70
2019-04-21T13:38:19.866Z,22.20
2019-04-21T13:39:38.250Z,21.10
2019-04-21T13:40:29.201Z,22.40
2019-04-21T13:41:23.176Z,22.90
2019-04-21T13:42:19.692Z,23.80
2019-04-21T13:43:10.686Z,21.80
2019-04-21T13:44:08.960Z,20.40
2019-04-21T13:45:10.200Z,22.10
2019-04-21T13:46:09.885Z,21.90
2019-04-21T13:47:08.639Z,21.30
2019-04-21T13:48:08.629Z,21.30
2019-04-21T13:49:09.493Z,22.60
2019-04-21T13:50:08.880Z,20.60
2019-04-21T13:51:09.135Z,19.80
2019-04-21T13:52:08.912Z,21.00
2019-04-21T13:53:09.033Z,20.70
2019-04-21T13:54:09.615Z,22.50
2019-04-21T13:55:09.602Z,20.40
2019-04-21T13:56:08.893Z,20.60
2019-04-21T13:57:08.564Z,19.20
2019-04-21T13:58:08.649Z,19.70
2019-04-21T13:59:08.549Z,19.30
2019-04-21T14:00:08.976Z,19.20
2019-04-21T14:01:09.625Z,19.70
2019-04-21T14:02:08.937Z,22.50
2019-04-21T14:03:08.475Z,19.90
2019-04-21T14:04:09.529Z,20.40
2019-04-21T14:05:10.435Z,18.40
2019-04-21T14:06:08.603Z,20.50
2019-04-21T14:07:08.433Z,20.80
2019-04-21T14:08:09.296Z,20.40